Time;durP1;ratioP1;P1;durP2;ratioP2;P2;SDS_P1;SDS_P2;PMS_P1;PMS_P2;Temp;Humidity;BMP_temperature;BMP_pressure;BME280_temperature;BME280_humidity;BME280_pressure;Samples;Min_cycle;Max_cycle;Signal;HPM_P1;HPM_P2
2021/12/07 00:02:11;;;;;;;23.30;10.00;;;;;;;2.14;88.70;100108.56;5089970;28;20412;-64
2021/12/07 00:04:38;;;;;;;19.60;10.57;;;;;;;2.21;89.00;100107.97;5070834;28;20482;-64
2021/12/07 00:07:06;;;;;;;18.40;10.30;;;;;;;2.21;89.43;100112.38;5066735;28;20072;-65
2021/12/07 00:09:35;;;;;;;22.02;11.07;;;;;;;2.31;88.24;100118.59;5069363;28;20043;-64
2021/12/07 00:12:04;;;;;;;20.02;10.50;;;;;;;2.59;86.66;100127.78;5069393;28;20127;-64
2021/12/07 00:14:38;;;;;;;18.77;10.57;;;;;;;2.53;87.45;100128.28;5069222;28;20072;-64
2021/12/07 00:17:07;;;;;;;21.67;10.60;;;;;;;2.51;87.83;100127.56;5087421;28;20412;-64
2021/12/07 00:19:33;;;;;;;18.48;9.68;;;;;;;2.33;88.19;100131.53;5089725;28;20040;-64
2021/12/07 00:22:02;;;;;;;16.58;8.93;;;;;;;2.52;87.94;100129.22;5071723;28;20052;-64
2021/12/07 00:24:29;;;;;;;14.90;8.35;;;;;;;2.66;87.45;100133.41;5089236;28;20036;-64
2021/12/07 00:26:56;;;;;;;14.70;8.45;;;;;;;2.69;87.49;100139.25;5089375;28;20040;-64
2021/12/07 00:29:24;;;;;;;20.20;9.93;;;;;;;2.57;88.08;100136.72;5088007;28;20408;-64
2021/12/07 00:32:06;;;;;;;17.58;8.43;;;;;;;2.56;88.17;100138.50;5071690;28;20048;-64
2021/12/07 00:37:09;;;;;;;16.60;8.25;;;;;;;2.74;87.13;100141.47;5110226;27;20384;-66
2021/12/07 00:39:37;;;;;;;16.30;7.85;;;;;;;2.64;87.65;100143.16;5092933;28;20118;-66
2021/12/07 00:42:04;;;;;;;16.38;7.63;;;;;;;2.72;86.67;100147.81;5110511;28;20040;-66
2021/12/07 00:44:31;;;;;;;15.63;6.75;;;;;;;2.71;86.95;100149.59;5109992;28;20390;-65
2021/12/07 00:46:57;;;;;;;13.00;6.05;;;;;;;2.65;85.93;100150.06;5109019;28;20480;-66
2021/12/07 00:49:24;;;;;;;14.55;6.25;;;;;;;2.61;86.42;100159.94;5109065;28;20044;-65
2021/12/07 00:51:51;;;;;;;16.05;5.60;;;;;;;2.35;86.26;100161.91;5109575;28;20050;-65
2021/12/07 00:54:18;;;;;;;11.30;5.57;;;;;;;2.26;86.69;100152.97;5108850;28;20385;-65
2021/12/07 00:56:45;;;;;;;12.95;5.40;;;;;;;2.34;86.86;100162.84;5108913;28;20042;-65
2021/12/07 00:59:13;;;;;;;16.83;5.70;;;;;;;2.29;87.23;100167.59;5110200;28;20043;-65
2021/12/07 01:01:40;;;;;;;12.73;6.22;;;;;;;2.21;87.09;100172.56;5109652;28;20110;-65
2021/12/07 01:04:07;;;;;;;11.57;5.97;;;;;;;2.18;88.65;100180.66;5106887;28;20054;-65
2021/12/07 01:07:03;;;;;;;12.52;6.40;;;;;;;2.17;88.25;100177.19;5109879;28;20047;-65
2021/12/07 01:24:39;;;;;;;12.52;6.50;;;;;;;2.20;87.00;100176.97;5109887;28;20075;-65
2021/12/07 01:26:05;;;;;;;14.48;7.93;;;;;;;2.48;87.54;100206.34;5122884;28;20042;-65
2021/12/07 01:28:34;;;;;;;15.23;8.07;;;;;;;2.43;87.56;100214.50;5128659;27;20058;-65
2021/12/07 01:50:49;;;;;;;23.95;11.27;;;;;;;2.65;89.73;100239.09;5089963;27;20393;-65
2021/12/07 02:01:36;;;;;;;29.10;15.05;;;;;;;2.97;89.88;100259.41;5072374;28;20044;-66
2021/12/07 02:04:04;;;;;;;28.70;15.27;;;;;;;2.96;90.01;100278.69;5066242;28;20041;-66
2021/12/07 02:06:30;;;;;;;26.77;15.70;;;;;;;2.94;89.90;100278.00;5066690;28;20080;-66
2021/12/07 02:08:57;;;;;;;28.00;15.18;;;;;;;3.02;90.17;100279.09;5067458;28;20041;-65
2021/12/07 02:11:26;;;;;;;30.27;16.63;;;;;;;3.04;89.68;100287.66;5067863;28;20071;-66
2021/12/07 02:16:29;;;;;;;25.30;15.23;;;;;;;2.87;90.64;100302.03;5067745;28;20048;-65
2021/12/07 02:18:59;;;;;;;33.60;15.15;;;;;;;2.99;90.82;100310.75;5068148;28;20355;-65
2021/12/07 02:21:27;;;;;;;24.15;14.30;;;;;;;3.03;89.88;100309.56;5067479;28;20512;-65
2021/12/07 02:24:01;;;;;;;23.20;13.95;;;;;;;3.13;89.67;100309.72;5068115;28;20525;-65
2021/12/07 02:26:28;;;;;;;24.92;12.57;;;;;;;3.03;89.55;100309.56;5068035;28;20049;-65
2021/12/07 02:28:57;;;;;;;21.42;12.40;;;;;;;3.12;88.89;100313.28;5067679;28;20041;-65
2021/12/07 02:31:24;;;;;;;25.80;12.43;;;;;;;3.14;89.09;100318.41;5069172;28;20152;-65
2021/12/07 02:33:51;;;;;;;26.20;13.80;;;;;;;3.11;90.29;100316.88;5068725;28;20405;-65
2021/12/07 02:36:18;;;;;;;23.00;12.70;;;;;;;3.27;89.56;100321.75;5082571;28;20048;-65
2021/12/07 02:38:45;;;;;;;20.15;12.25;;;;;;;3.27;89.30;100324.38;5089323;28;20039;-65
2021/12/07 02:41:12;;;;;;;20.13;11.30;;;;;;;3.30;90.13;100326.78;5085968;28;20051;-65
2021/12/07 02:43:39;;;;;;;30.83;14.30;;;;;;;3.36;90.52;100328.09;5087855;28;20040;-65
2021/12/07 02:46:05;;;;;;;38.85;16.73;;;;;;;3.28;90.56;100333.09;5088200;28;20078;-65
2021/12/07 02:48:33;;;;;;;40.38;16.35;;;;;;;3.28;91.69;100346.22;5092323;28;20153;-65
2021/12/07 02:51:02;;;;;;;41.10;16.90;;;;;;;3.28;91.27;100338.34;5106889;28;20127;-65
2021/12/07 02:53:33;;;;;;;31.25;17.77;;;;;;;3.37;92.03;100345.50;5091686;28;20068;-65
2021/12/07 02:56:03;;;;;;;37.88;18.10;;;;;;;3.41;91.36;100363.50;5091616;28;20035;-65
2021/12/07 02:58:35;;;;;;;36.00;18.08;;;;;;;3.38;90.86;100379.44;5109029;28;20047;-66
2021/12/07 03:01:14;;;;;;;34.40;17.75;;;;;;;3.44;91.03;100381.63;5091132;28;20036;-65
2021/12/07 03:04:16;;;;;;;36.15;18.48;;;;;;;3.39;90.34;100382.94;5075516;28;20048;-66
2021/12/07 03:10:09;;;;;;;38.15;17.83;;;;;;;3.50;90.17;100392.59;5108837;27;21317;-66
2021/12/07 03:26:24;;;;;;;34.92;18.60;;;;;;;4.03;87.65;100403.34;5105297;28;20044;-65
2021/12/07 03:28:54;;;;;;;35.15;18.27;;;;;;;3.90;88.49;100411.34;5091843;28;20048;-64
2021/12/07 03:31:27;;;;;;;34.10;17.45;;;;;;;3.98;87.61;100406.38;5109986;28;20040;-66
2021/12/07 03:33:55;;;;;;;39.42;19.40;;;;;;;3.88;87.79;100407.19;5091832;28;20404;-66
2021/12/07 03:36:26;;;;;;;34.85;18.75;;;;;;;3.82;88.17;100421.59;5075023;28;20528;-65
2021/12/07 03:38:56;;;;;;;46.42;19.58;;;;;;;3.82;88.20;100421.59;5110133;28;20032;-65
2021/12/07 03:41:24;;;;;;;40.47;20.10;;;;;;;3.76;88.68;100433.41;5091740;28;20082;-65
2021/12/07 03:43:51;;;;;;;41.00;20.90;;;;;;;3.64;88.72;100437.81;5091898;28;20105;-65
2021/12/07 03:46:18;;;;;;;42.15;22.08;;;;;;;3.54;89.50;100436.81;5074955;28;20073;-65
2021/12/07 03:48:45;;;;;;;38.08;20.98;;;;;;;3.55;89.33;100443.75;5058195;28;20047;-65
2021/12/07 03:51:13;;;;;;;37.10;19.17;;;;;;;3.63;89.25;100445.78;5091728;28;20468;-65
2021/12/07 03:53:40;;;;;;;47.53;19.25;;;;;;;3.62;89.42;100450.22;5091835;28;20048;-65
2021/12/07 03:56:09;;;;;;;38.90;16.98;;;;;;;3.57;89.24;100451.50;5074290;28;20045;-65
2021/12/07 03:58:39;;;;;;;33.23;14.33;;;;;;;3.54;89.46;100460.44;5089157;28;20088;-65
2021/12/07 04:01:09;;;;;;;33.63;15.13;;;;;;;3.51;89.99;100454.59;5071342;28;20049;-65
2021/12/07 04:03:36;;;;;;;34.15;13.85;;;;;;;3.53;90.43;100457.91;5089146;28;20044;-65
2021/12/07 04:06:06;;;;;;;32.55;12.70;;;;;;;3.69;88.97;100460.22;5088944;28;20048;-65
2021/12/07 04:08:36;;;;;;;;;;;;;;;3.64;89.24;100457.97;5089182;28;20052;-65
2021/12/07 04:11:04;;;;;;;29.45;9.45;;;;;;;3.54;89.51;100464.84;5088964;28;19924;-65
2021/12/07 04:13:32;;;;;;;26.60;11.05;;;;;;;3.66;89.08;100463.94;5088914;28;20444;-65
2021/12/07 04:15:59;;;;;;;26.15;10.00;;;;;;;3.61;89.45;100482.63;5088627;28;20044;-65
2021/12/07 04:18:28;;;;;;;37.30;9.35;;;;;;;3.63;89.16;100467.59;5088805;28;20094;-65
2021/12/07 04:20:56;;;;;;;34.92;8.30;;;;;;;3.63;89.23;100488.59;5073382;28;20115;-65
2021/12/07 04:23:23;;;;;;;28.08;9.00;;;;;;;3.49;89.72;100480.91;5075387;28;20389;-65
2021/12/07 04:25:50;;;;;;;30.95;8.27;;;;;;;3.49;89.73;100482.72;5074881;28;20046;-65
2021/12/07 04:28:17;;;;;;;30.38;8.68;;;;;;;3.57;89.26;100496.09;5075041;28;20098;-65
2021/12/07 04:30:45;;;;;;;33.65;9.88;;;;;;;3.54;89.60;100498.94;5073798;28;20056;-65
2021/12/07 04:33:14;;;;;;;28.65;8.73;;;;;;;3.50;89.68;100502.75;5073861;28;20049;-65
2021/12/07 04:35:45;;;;;;;31.35;9.18;;;;;;;3.46;89.67;100505.59;5083177;28;20135;-65
2021/12/07 04:38:13;;;;;;;27.58;8.10;;;;;;;3.54;89.35;100502.41;5095206;28;20040;-65
2021/12/07 04:40:40;;;;;;;38.88;9.50;;;;;;;3.46;90.02;100504.78;5094962;28;20070;-65
2021/12/07 04:43:08;;;;;;;31.88;9.00;;;;;;;3.48;89.55;100513.34;5093534;28;20449;-65
2021/12/07 04:45:51;;;;;;;32.65;8.40;;;;;;;3.53;89.69;100528.75;5093873;28;20040;-65
2021/12/07 04:59:17;;;;;;;31.98;7.35;;;;;;;3.44;89.45;100523.25;5073778;28;20083;-65
2021/12/07 05:01:45;;;;;;;30.27;6.55;;;;;;;3.41;89.53;100528.69;5074240;28;20045;-65
2021/12/07 05:04:17;;;;;;;25.77;6.63;;;;;;;3.42;88.94;100527.75;5073573;28;20405;-65
2021/12/07 05:06:49;;;;;;;34.15;7.30;;;;;;;3.41;89.19;100540.97;5057368;28;20067;-65
2021/12/07 05:09:52;;;;;;;22.73;6.10;;;;;;;3.42;88.84;100551.38;5072758;28;20059;-65
2021/12/07 05:12:22;;;;;;;30.77;6.80;;;;;;;3.43;89.02;100549.56;5072888;28;20052;-65
2021/12/07 05:14:58;;;;;;;25.48;5.70;;;;;;;3.43;88.98;100555.66;5071298;28;20048;-65
2021/12/07 05:39:40;;;;;;;27.20;5.75;;;;;;;3.45;88.46;100576.53;5092341;28;20060;-64
2021/12/07 05:42:08;;;;;;;26.58;5.35;;;;;;;3.28;88.92;100584.78;5092591;28;20097;-64
2021/12/07 05:44:34;;;;;;;24.52;5.53;;;;;;;3.50;88.56;100599.81;5093273;28;20040;-66
2021/12/07 05:47:03;;;;;;;24.33;5.05;;;;;;;3.38;88.79;100604.13;5075815;28;20044;-66
2021/12/07 05:49:30;;;;;;;24.98;4.88;;;;;;;3.36;88.75;100603.41;5092496;28;20442;-64
2021/12/07 05:51:57;;;;;;;22.63;5.18;;;;;;;3.30;89.08;100602.06;5092139;28;20051;-65
2021/12/07 05:54:25;;;;;;;32.78;5.55;;;;;;;3.42;88.78;100608.19;5088875;28;20526;-64
2021/12/07 05:56:51;;;;;;;22.83;5.35;;;;;;;3.36;88.78;100614.72;5073129;28;20131;-64
2021/12/07 05:59:19;;;;;;;26.88;5.55;;;;;;;3.23;88.80;100614.78;5073094;28;20043;-64
2021/12/07 06:01:46;;;;;;;26.90;5.35;;;;;;;3.37;89.09;100634.78;5073288;28;20504;-64
2021/12/07 06:04:13;;;;;;;23.73;5.03;;;;;;;3.29;89.01;100646.75;5071332;28;20128;-65
2021/12/07 06:06:39;;;;;;;22.90;4.60;;;;;;;3.35;89.02;100647.16;5072795;28;20067;-64
2021/12/07 06:09:07;;;;;;;19.45;4.97;;;;;;;3.28;89.57;100642.47;5071293;28;20401;-64
2021/12/07 06:11:34;;;;;;;35.67;5.65;;;;;;;3.23;89.21;100638.38;5055305;28;20052;-64
2021/12/07 06:14:00;;;;;;;23.75;5.20;;;;;;;3.24;89.00;100650.56;5054975;28;20040;-64
2021/12/07 06:16:30;;;;;;;28.55;5.80;;;;;;;3.22;89.20;100662.06;5072889;28;20044;-66
2021/12/07 06:18:58;;;;;;;24.65;5.43;;;;;;;3.22;89.04;100655.06;5079967;28;20040;-64
2021/12/07 06:21:28;;;;;;;21.13;5.55;;;;;;;3.14;89.16;100651.31;5091574;28;20044;-64
2021/12/07 06:23:55;;;;;;;32.72;5.43;;;;;;;3.17;88.95;100667.66;5075334;28;20064;-63
2021/12/07 06:26:22;;;;;;;25.73;5.72;;;;;;;3.26;88.99;100668.78;5074745;28;20044;-64
2021/12/07 06:28:49;;;;;;;20.58;4.82;;;;;;;3.26;89.40;100667.00;5091555;28;20036;-64
2021/12/07 06:31:16;;;;;;;33.97;5.55;;;;;;;3.32;88.68;100668.34;5091254;28;20512;-64
2021/12/07 06:33:42;;;;;;;24.48;5.70;;;;;;;3.36;88.68;100676.84;5092697;28;20126;-64
2021/12/07 06:36:09;;;;;;;20.35;5.55;;;;;;;3.40;88.29;100683.53;5077672;28;20044;-64
2021/12/07 06:38:36;;;;;;;24.10;5.65;;;;;;;3.43;88.48;100684.16;5072283;28;20037;-64
2021/12/07 06:41:04;;;;;;;28.20;5.85;;;;;;;3.45;87.88;100684.03;5076960;28;20047;-64
2021/12/07 06:43:31;;;;;;;18.40;4.80;;;;;;;3.36;87.87;100682.09;5091282;28;20093;-64
2021/12/07 06:45:59;;;;;;;27.90;5.63;;;;;;;3.24;88.48;100689.88;5091926;28;20404;-64
2021/12/07 06:48:26;;;;;;;21.27;5.38;;;;;;;3.23;89.18;100672.47;5074533;28;20040;-64
2021/12/07 06:50:53;;;;;;;29.77;6.85;;;;;;;3.23;89.14;100675.06;5082427;28;20051;-64
2021/12/07 06:53:20;;;;;;;32.08;7.68;;;;;;;3.10;88.93;100683.94;5086442;28;20582;-65
2021/12/07 06:55:47;;;;;;;26.00;5.95;;;;;;;3.29;87.92;100673.81;5070522;28;20444;-65
2021/12/07 06:58:14;;;;;;;29.42;7.30;;;;;;;3.24;88.61;100668.91;5071204;28;20049;-65
2021/12/07 07:00:40;;;;;;;27.48;6.80;;;;;;;3.25;88.16;100685.47;5054279;28;20082;-65
2021/12/07 07:03:07;;;;;;;37.00;7.65;;;;;;;3.13;89.00;100674.06;5071249;28;20068;-65
2021/12/07 07:05:34;;;;;;;23.10;6.95;;;;;;;3.20;88.16;100677.94;5070966;28;20496;-65
2021/12/07 07:08:02;;;;;;;25.73;6.88;;;;;;;3.10;88.16;100686.56;5070735;28;20048;-65
2021/12/07 07:10:29;;;;;;;25.40;6.80;;;;;;;3.21;88.02;100679.59;5071269;28;20115;-65
2021/12/07 07:12:56;;;;;;;33.35;7.60;;;;;;;3.16;87.47;100683.50;5072867;28;20040;-65
2021/12/07 07:15:23;;;;;;;23.05;6.57;;;;;;;3.09;88.40;100685.69;5070938;28;20052;-65
2021/12/07 07:17:49;;;;;;;26.70;7.28;;;;;;;2.96;88.19;100674.41;5071073;28;20047;-65
2021/12/07 07:20:17;;;;;;;28.33;6.68;;;;;;;3.03;88.19;100686.97;5072107;28;20048;-65
2021/12/07 07:22:45;;;;;;;24.95;7.20;;;;;;;2.99;88.24;100688.13;5071611;28;20036;-65
2021/12/07 07:25:12;;;;;;;25.55;7.00;;;;;;;2.87;88.63;100697.69;5079735;28;20044;-64
2021/12/07 07:27:40;;;;;;;22.40;5.60;;;;;;;2.99;87.80;100701.22;5070734;28;20059;-64
2021/12/07 07:30:09;;;;;;;22.33;5.70;;;;;;;2.87;88.04;100702.94;5074267;28;20070;-64
2021/12/07 07:32:36;;;;;;;19.85;6.05;;;;;;;2.89;87.83;100710.66;5090623;28;20048;-63
2021/12/07 07:35:06;;;;;;;32.90;6.00;;;;;;;2.72;88.73;100714.44;5090496;28;20047;-65
2021/12/07 07:37:33;;;;;;;25.02;5.75;;;;;;;2.82;88.36;100722.50;5092084;28;20497;-64
2021/12/07 07:39:59;;;;;;;25.42;5.53;;;;;;;2.95;88.01;100715.50;5074468;28;20085;-64
2021/12/07 07:42:27;;;;;;;25.50;6.05;;;;;;;2.83;88.12;100719.78;5091041;28;20050;-65
2021/12/07 07:45:04;;;;;;;26.52;5.90;;;;;;;2.75;88.40;100710.75;5092220;28;20130;-65
2021/12/07 07:47:30;;;;;;;24.17;5.40;;;;;;;2.86;87.88;100716.13;5074325;28;20079;-65
2021/12/07 07:49:57;;;;;;;24.35;5.22;;;;;;;2.92;87.86;100713.06;5090819;28;20067;-65
2021/12/07 07:52:24;;;;;;;24.83;5.03;;;;;;;2.93;87.84;100722.63;5083009;28;20051;-65
2021/12/07 07:54:52;;;;;;;25.05;5.50;;;;;;;3.07;86.97;100719.03;5039026;28;20190;-65
2021/12/07 07:57:19;;;;;;;22.23;5.10;;;;;;;2.97;87.55;100715.41;5074174;28;20048;-65
2021/12/07 07:59:46;;;;;;;22.58;5.68;;;;;;;2.98;87.44;100723.13;5062683;28;20040;-65
2021/12/07 08:02:13;;;;;;;28.45;6.32;;;;;;;3.02;87.07;100723.75;5074255;28;20055;-65
2021/12/07 08:04:40;;;;;;;25.05;5.30;;;;;;;2.91;87.67;100721.03;5076156;28;20386;-65
2021/12/07 08:07:06;;;;;;;24.35;5.53;;;;;;;2.99;87.65;100721.38;5080820;28;20129;-66
2021/12/07 08:09:33;;;;;;;23.58;5.53;;;;;;;3.22;86.31;100723.22;5073961;28;20044;-66
2021/12/07 08:12:00;;;;;;;18.95;5.95;;;;;;;2.98;86.90;100717.88;5074040;28;20048;-65
2021/12/07 08:14:27;;;;;;;25.15;5.57;;;;;;;3.12;86.26;100709.06;5078390;28;20040;-65
2021/12/07 08:16:53;;;;;;;23.33;4.80;;;;;;;2.93;87.13;100706.91;5095405;28;20505;-65
2021/12/07 08:19:20;;;;;;;20.40;5.20;;;;;;;2.97;86.69;100715.41;5095266;28;20131;-64
2021/12/07 08:21:48;;;;;;;22.15;4.68;;;;;;;3.14;86.17;100719.47;5095113;28;20139;-65
2021/12/07 08:24:16;;;;;;;25.23;4.97;;;;;;;3.21;85.32;100723.34;5095554;28;20509;-65
2021/12/07 08:26:43;;;;;;;16.40;4.53;;;;;;;3.20;85.45;100727.75;5081718;28;20052;-64
2021/12/07 08:29:10;;;;;;;25.83;4.82;;;;;;;3.12;85.55;100719.56;5077365;28;20481;-64
2021/12/07 08:31:37;;;;;;;20.70;4.68;;;;;;;3.01;86.75;100722.91;5093801;28;20050;-65
2021/12/07 08:34:04;;;;;;;22.05;4.75;;;;;;;3.20;86.26;100714.63;5075854;28;20055;-65
2021/12/07 08:36:31;;;;;;;16.88;4.45;;;;;;;3.13;86.52;100720.38;5093364;28;20040;-64
2021/12/07 08:38:59;;;;;;;28.52;5.25;;;;;;;3.24;86.07;100717.88;5094999;28;20035;-64
2021/12/07 08:41:26;;;;;;;24.17;5.15;;;;;;;3.18;87.12;100724.38;5088319;28;20044;-64
2021/12/07 08:43:53;;;;;;;20.25;4.60;;;;;;;3.47;84.86;100731.97;5082641;28;20432;-64
2021/12/07 08:46:20;;;;;;;22.45;5.68;;;;;;;3.26;85.29;100726.47;5061965;28;20041;-64
2021/12/07 08:48:47;;;;;;;22.58;6.30;;;;;;;3.29;86.46;100735.91;5091963;28;20048;-64
2021/12/07 08:51:15;;;;;;;21.38;5.72;;;;;;;3.33;86.52;100734.72;5082757;28;20560;-64
2021/12/07 08:53:53;;;;;;;24.42;5.38;;;;;;;3.27;86.76;100736.00;5078708;28;20497;-64
2021/12/07 09:01:55;;;;;;;27.75;5.47;;;;;;;3.66;84.14;100742.03;5091279;28;20102;-68
2021/12/07 09:04:22;;;;;;;19.40;4.70;;;;;;;3.59;85.28;100733.75;5073692;28;20052;-67
2021/12/07 09:06:49;;;;;;;19.60;4.55;;;;;;;3.51;85.13;100738.72;5091321;28;20044;-68
2021/12/07 09:09:16;;;;;;;20.10;4.28;;;;;;;3.60;84.01;100734.56;5091166;28;20044;-68
2021/12/07 09:11:44;;;;;;;21.45;4.32;;;;;;;3.63;84.97;100742.22;5092132;28;20044;-68
2021/12/07 09:14:14;;;;;;;34.38;4.78;;;;;;;3.74;83.62;100752.78;5069440;28;20043;-64
2021/12/07 09:16:42;;;;;;;19.35;4.75;;;;;;;3.69;83.88;100751.44;5058708;28;20143;-68
2021/12/07 09:19:09;;;;;;;25.15;4.68;;;;;;;3.75;83.05;100751.88;5067449;28;20365;-67
2021/12/07 09:21:37;;;;;;;23.98;4.32;;;;;;;3.70;83.38;100753.13;5074615;28;20047;-66
2021/12/07 09:24:04;;;;;;;18.80;4.35;;;;;;;3.82;82.88;100765.38;5083853;28;20394;-66
2021/12/07 09:26:33;;;;;;;17.00;4.03;;;;;;;3.87;82.48;100771.13;5079642;28;20048;-66
2021/12/07 09:29:00;;;;;;;22.30;3.90;;;;;;;3.74;83.56;100757.22;5086042;28;20067;-67
2021/12/07 09:31:27;;;;;;;16.75;3.83;;;;;;;3.85;82.95;100755.47;5082658;28;20040;-67
2021/12/07 09:33:55;;;;;;;35.17;7.45;;;;;;;3.92;84.29;100761.13;5086266;28;20426;-67
2021/12/07 09:36:22;;;;;;;25.85;6.60;;;;;;;4.04;83.07;100764.69;5073402;28;20467;-68
2021/12/07 09:38:52;;;;;;;17.65;4.25;;;;;;;4.22;81.10;100760.72;5075507;28;20044;-67
2021/12/07 09:41:20;;;;;;;21.13;4.72;;;;;;;4.13;82.84;100765.78;5083936;28;20135;-68
2021/12/07 09:43:47;;;;;;;34.80;4.97;;;;;;;4.03;82.68;100755.13;5082661;28;20159;-67
2021/12/07 09:46:14;;;;;;;20.17;4.50;;;;;;;4.12;82.92;100764.94;5058929;28;20044;-68
2021/12/07 09:48:42;;;;;;;22.45;4.68;;;;;;;4.30;81.83;100773.28;5089545;28;20062;-66
2021/12/07 09:51:11;;;;;;;27.00;5.13;;;;;;;4.38;80.24;100777.94;5071456;28;20040;-66
2021/12/07 09:53:38;;;;;;;21.83;5.03;;;;;;;4.33;81.10;100766.94;5099080;28;20516;-66
2021/12/07 09:56:07;;;;;;;18.67;5.28;;;;;;;4.31;82.32;100771.47;5058787;28;20040;-66
2021/12/07 09:58:36;;;;;;;28.33;5.05;;;;;;;4.40;81.61;100768.16;5064445;28;20493;-65
2021/12/07 10:01:06;;;;;;;23.60;5.70;;;;;;;4.49;80.87;100766.66;5068855;28;20404;-66
2021/12/07 10:03:33;;;;;;;26.83;5.28;;;;;;;4.64;80.51;100770.78;5079408;28;20050;-67
2021/12/07 10:06:00;;;;;;;25.38;5.88;;;;;;;4.65;80.16;100766.34;5035551;28;20041;-67
2021/12/07 10:08:27;;;;;;;26.05;5.38;;;;;;;4.56;79.99;100757.38;5080650;28;20066;-66
2021/12/07 10:10:57;;;;;;;21.88;6.22;;;;;;;4.48;80.84;100757.94;5092897;28;20032;-68
2021/12/07 10:13:27;;;;;;;32.10;5.75;;;;;;;4.61;80.66;100760.50;5066849;28;20558;-66
2021/12/07 10:15:56;;;;;;;25.20;5.63;;;;;;;4.66;80.67;100749.63;5092251;28;20464;-67
2021/12/07 10:18:26;;;;;;;33.55;6.78;;;;;;;4.61;80.22;100739.47;5055930;28;20044;-66
2021/12/07 10:21:15;;;;;;;31.30;7.22;;;;;;;4.68;80.60;100735.44;5074077;28;20043;-67
2021/12/07 10:23:48;;;;;;;30.38;6.55;;;;;;;4.75;81.51;100730.56;5066697;28;20056;-68
2021/12/07 10:26:35;;;;;;;30.15;6.25;;;;;;;4.99;79.39;100730.47;5078786;28;20100;-67
2021/12/07 10:29:17;;;;;;;31.85;5.22;;;;;;;5.08;78.42;100721.03;5090868;28;20088;-68
2021/12/07 10:31:52;;;;;;;29.58;6.15;;;;;;;5.06;79.47;100701.88;5085636;28;20044;-67
2021/12/07 10:34:22;;;;;;;23.50;5.15;;;;;;;5.16;78.44;100714.19;5063805;28;20118;-67
2021/12/07 10:36:52;;;;;;;20.58;4.80;;;;;;;5.32;78.09;100710.38;5086526;28;20059;-67
2021/12/07 10:39:22;;;;;;;23.83;5.18;;;;;;;5.52;76.83;100714.91;5076490;28;20560;-67
2021/12/07 10:41:56;;;;;;;32.78;5.32;;;;;;;5.45;77.23;100712.88;5090249;28;20040;-69
2021/12/07 10:44:35;;;;;;;36.03;5.40;;;;;;;5.49;76.82;100714.31;5044902;28;20052;-66
2021/12/07 10:47:12;;;;;;;17.88;4.18;;;;;;;5.78;75.80;100709.34;5081704;28;20033;-66
2021/12/07 10:52:35;;;;;;;24.27;4.78;;;;;;;8.91;65.19;100700.72;5125904;27;20119;-67
2021/12/07 10:55:16;;;;;;;30.73;5.72;;;;;;;10.60;60.58;100699.38;5124202;27;20032;-67
2021/12/07 11:00:25;;;;;;;25.80;5.80;;;;;;;11.49;54.67;100698.97;5101150;27;20229;-69
2021/12/07 11:05:35;;;;;;;21.33;4.50;;;;;;;12.47;52.34;100694.84;5105608;27;20367;-69
2021/12/07 11:08:05;;;;;;;21.90;4.70;;;;;;;12.96;50.40;100680.63;5053936;28;20037;-67
2021/12/07 11:10:37;;;;;;;18.10;4.70;;;;;;;13.17;49.49;100688.88;5058192;28;20037;-68
2021/12/07 11:15:56;;;;;;;24.50;5.85;;;;;;;12.38;50.28;100672.72;5108539;27;20388;-67
2021/12/07 11:22:46;;;;;;;45.83;8.93;;;;;;;11.66;52.56;100664.50;5082149;28;20028;-69
2021/12/07 11:25:42;;;;;;;21.08;5.45;;;;;;;11.38;53.37;100650.66;5097627;28;20519;-69
2021/12/07 11:31:15;;;;;;;20.52;5.85;;;;;;;11.09;54.92;100638.59;5089527;28;20050;-69
2021/12/07 11:33:42;;;;;;;22.50;5.28;;;;;;;10.82;56.30;100634.31;5089859;28;20112;-69
2021/12/07 11:36:29;;;;;;;22.55;4.25;;;;;;;11.31;55.33;100629.22;5083965;28;20128;-69
2021/12/07 11:38:57;;;;;;;24.15;4.18;;;;;;;11.33;55.01;100621.91;5088635;28;20135;-68
2021/12/07 11:41:31;;;;;;;26.55;4.55;;;;;;;10.90;55.15;100621.94;5087804;28;20039;-69
2021/12/07 11:44:05;;;;;;;22.33;4.22;;;;;;;10.64;54.73;100621.97;5086985;28;20040;-69
2021/12/07 11:46:35;;;;;;;24.25;4.50;;;;;;;10.51;55.95;100621.56;5085324;28;20040;-69
2021/12/07 11:49:14;;;;;;;17.77;3.75;;;;;;;9.49;57.31;100617.53;5070851;28;20467;-68
2021/12/07 11:51:44;;;;;;;27.65;5.43;;;;;;;9.53;58.40;100624.19;5086036;28;20051;-68
2021/12/07 11:54:13;;;;;;;30.58;4.55;;;;;;;9.48;58.40;100621.16;5088545;28;20047;-68
2021/12/07 11:56:40;;;;;;;25.90;4.78;;;;;;;8.72;60.00;100620.44;5095637;28;20056;-64
2021/12/07 11:59:09;;;;;;;21.77;4.72;;;;;;;7.90;63.39;100634.22;5082254;28;20037;-65
2021/12/07 12:01:45;;;;;;;22.80;4.40;;;;;;;7.90;65.23;100626.28;5085748;28;20570;-64
2021/12/07 12:04:14;;;;;;;16.92;3.67;;;;;;;7.79;63.60;100617.53;5094968;28;20062;-65
2021/12/07 12:06:45;;;;;;;18.77;4.30;;;;;;;7.87;65.42;100617.66;5088742;28;20055;-69
2021/12/07 12:09:12;;;;;;;12.75;3.35;;;;;;;7.87;65.34;100615.00;5087153;28;20048;-67
2021/12/07 12:12:12;;;;;;;20.98;4.03;;;;;;;8.15;64.43;100607.22;5065880;28;20052;-69
2021/12/07 12:15:10;;;;;;;15.52;3.42;;;;;;;8.15;62.42;100607.22;5080544;28;20127;-68
2021/12/07 12:18:04;;;;;;;15.32;3.28;;;;;;;8.19;63.76;100611.25;5085833;28;20064;-68
2021/12/07 12:20:56;;;;;;;16.70;3.20;;;;;;;8.53;62.06;100594.94;5107444;28;20044;-68
2021/12/07 12:23:33;;;;;;;16.20;3.70;;;;;;;8.75;59.12;100595.50;5100080;28;20044;-68
2021/12/07 12:26:05;;;;;;;15.50;3.28;;;;;;;8.73;60.25;100589.53;5078628;28;20032;-68
2021/12/07 12:28:36;;;;;;;25.27;4.20;;;;;;;8.76;57.39;100591.91;5071958;28;20041;-67
2021/12/07 12:31:04;;;;;;;15.93;3.20;;;;;;;8.80;56.77;100586.19;5072195;28;20059;-67
2021/12/07 12:36:36;;;;;;;16.45;3.08;;;;;;;9.49;56.08;100577.81;5119873;27;21056;-68
2021/12/07 12:39:07;;;;;;;12.00;2.75;;;;;;;9.73;55.51;100572.78;5102503;28;20071;-67
2021/12/07 12:41:36;;;;;;;16.10;3.28;;;;;;;9.68;55.49;100563.59;5113215;28;20040;-67
2021/12/07 12:44:11;;;;;;;15.02;3.25;;;;;;;9.33;54.35;100557.31;5114231;27;20039;-67
2021/12/07 12:46:37;;;;;;;17.00;3.50;;;;;;;9.44;57.03;100573.00;5109372;27;20043;-66
2021/12/07 12:49:10;;;;;;;16.15;3.30;;;;;;;9.30;55.75;100562.94;5092891;28;20043;-68
2021/12/07 12:51:49;;;;;;;16.58;3.40;;;;;;;9.34;55.21;100553.69;5072259;28;20062;-68
2021/12/07 12:54:17;;;;;;;16.75;3.28;;;;;;;9.34;56.16;100559.81;5107255;28;20055;-68
2021/12/07 12:56:44;;;;;;;14.63;3.17;;;;;;;9.11;57.26;100561.22;5098166;28;20040;-67
2021/12/07 12:59:12;;;;;;;15.52;3.65;;;;;;;9.34;55.41;100538.63;5100610;28;20047;-68
2021/12/07 13:01:42;;;;;;;11.32;2.75;;;;;;;9.05;57.13;100538.00;5083328;28;20048;-68
2021/12/07 13:04:22;;;;;;;24.50;3.28;;;;;;;8.64;56.13;100546.28;5124342;28;20039;-68
2021/12/07 13:09:55;;;;;;;16.95;2.90;;;;;;;7.69;56.73;100545.38;5124785;27;20490;-69
2021/12/07 13:12:25;;;;;;;13.93;2.50;;;;;;;7.40;57.80;100555.94;5090889;28;20097;-67
2021/12/07 13:14:55;;;;;;;11.57;2.70;;;;;;;7.20;60.04;100544.53;5083660;28;20044;-69
2021/12/07 13:17:45;;;;;;;14.07;2.92;;;;;;;7.04;60.00;100551.19;5099923;28;20052;-66
2021/12/07 13:25:52;;;;;;;13.40;3.35;;;;;;;6.84;62.02;100531.00;5108427;27;20407;-66
2021/12/07 13:31:13;;;;;;;18.80;3.38;;;;;;;6.76;62.86;100515.03;5132783;27;20120;-67
2021/12/07 13:33:49;;;;;;;14.77;3.30;;;;;;;6.73;63.28;100500.31;5102185;28;20080;-67
2021/12/07 13:36:38;;;;;;;24.48;3.90;;;;;;;6.72;62.61;100499.47;5081639;28;20036;-67
2021/12/07 13:45:05;;;;;;;15.32;3.58;;;;;;;6.51;63.46;100491.66;5069624;27;20420;-66
2021/12/07 13:47:35;;;;;;;15.10;3.00;;;;;;;6.42;64.71;100494.25;5075053;28;20041;-69
2021/12/07 13:50:07;;;;;;;12.30;3.05;;;;;;;6.37;61.84;100488.53;5086750;28;20082;-67
2021/12/07 13:52:38;;;;;;;15.32;3.30;;;;;;;6.27;63.45;100486.69;5073026;28;20045;-66
2021/12/07 13:55:09;;;;;;;13.40;3.80;;;;;;;6.20;63.10;100479.47;5073953;28;20041;-66
2021/12/07 13:57:40;;;;;;;14.47;3.23;;;;;;;6.01;62.71;100475.78;5080335;28;20047;-67
2021/12/07 14:00:19;;;;;;;14.38;3.10;;;;;;;6.03;64.79;100473.84;5057216;28;20072;-67